Cruz Bay, VI

10:15 PM AST on November 26, 2014 (GMT -0400)
King | Change Station
CLOSE
Current Station
Airport
Location: St. Thomas,
Elevation: 23 ft
Nearby Weather Stations

Elev 23 ft 18.34 °N, 64.97 °W | Updated 2 hours ago

Clear
Clear
79 °F
Feels Like 79 °F
N
13
Wind Variable Wind from East

Today
High -- | Low -- °F
--% Chance of Precip.
Yesterday
High -- | Low -- °F
Precip. -- in
6:31 AM 5:41 PM
Waxing Crescent, 24% visible
Pressure 30.01 in
Visibility 10.0 miles
Clouds Clear
Dew Point 72 °F
Humidity 79%
Rainfall 0.12 in
Snow Depth Not available.
UV 0 out of 12
Pollen Not available.
Air Quality Not available.
Flu Activity Not available.
METAR TIST 262353Z AUTO 09011KT 10SM CLR 26/22 A3000 RMK AO2 SLP160 60007 T02610222 10294 20256 51009 TSNO $

More Conditions Fewer Conditions

Pressure 30.01 in
Visibility 10.0 miles
Clouds Clear
Dew Point 72 °F
Humidity 79%
Rainfall 0.12 in
Snow Depth Not available.
UV 0 out of 12
Pollen Not available.
Air Quality Not available.
Flu Activity Not available.
METAR TIST 262353Z AUTO 09011KT 10SM CLR 26/22 A3000 RMK AO2 SLP160 60007 T02610222 10294 20256 51009 TSNO $

More Conditions Fewer Conditions

10-Day Weather Forecast

Almanac

Astronomy

Nov. 26, 2014 Rise Set
Actual Time
Civil Twilight
Nautical Twilight
Astronomical Twilight
Moon
Length of Visible Light
Length of Day
Tomorrow will be .
, % of the Moon is Illuminated

Today's Extremes

State Highs State Lows

Community

WunderPhotos

Upload Photos

1,773,943 photos uploaded!

WunderBlogs® & News

Nearby

Air Quality

  Air Quality AQ Index Pollutant
Not available.

Snow Depth

Station Depth Elevation

Earthquake Activity

City Distance Mag. Time & Date
Minimum magnitude displayed is 2.5.

Coastal Water Temperatures

Place Temperature

Nearby Weather Stations